createdAt,value
2022-12-15T00:03:22.708Z,79.45
2022-12-15T00:09:45.674Z,79.91
2022-12-15T00:16:05.680Z,79.4
2022-12-15T00:22:28.566Z,79.03
2022-12-15T00:28:48.610Z,79.89
2022-12-15T00:35:11.592Z,79.76
2022-12-15T00:41:31.589Z,79.82
2022-12-15T00:47:54.708Z,79.28
2022-12-15T00:54:17.977Z,79.01
2022-12-15T01:00:37.560Z,79.11
2022-12-15T01:06:57.740Z,78.89
2022-12-15T01:13:20.590Z,79.23
2022-12-15T01:19:40.577Z,79.58
2022-12-15T01:26:03.559Z,79.68
2022-12-15T01:32:23.661Z,79.02
2022-12-15T01:38:50.775Z,79.28
2022-12-15T01:45:06.582Z,78.72
2022-12-15T01:51:29.787Z,78.86
2022-12-15T01:57:49.614Z,79.03
2022-12-15T02:04:12.584Z,79.54
2022-12-15T02:10:32.602Z,79.1
2022-12-15T02:16:55.575Z,79.11
2022-12-15T02:23:15.570Z,79.13
2022-12-15T02:29:38.616Z,79.12
2022-12-15T02:35:58.577Z,79.87
2022-12-15T02:42:21.630Z,78.96
2022-12-15T02:48:42.006Z,79.28
2022-12-15T02:55:04.571Z,79.89
2022-12-15T03:01:24.721Z,79
2022-12-15T03:07:49.623Z,78.72
2022-12-15T03:14:07.617Z,78.34
2022-12-15T03:20:30.601Z,78.54
2022-12-15T03:26:50.818Z,78.88
2022-12-15T03:33:13.621Z,78.62
2022-12-15T03:39:33.574Z,78.58
2022-12-15T03:45:56.745Z,78.64
2022-12-15T03:52:16.581Z,78.64
2022-12-15T03:58:39.619Z,78.68
2022-12-15T04:04:59.587Z,78.46
2022-12-15T04:21:09.520Z,79.45
2022-12-15T04:27:29.563Z,80.61
2022-12-15T04:33:52.586Z,81.14
2022-12-15T04:40:12.570Z,80.36
2022-12-15T04:46:35.722Z,80.86
2022-12-15T04:52:55.615Z,81.43
2022-12-15T04:59:18.632Z,82.24
2022-12-15T05:05:38.571Z,81.86
2022-12-15T05:12:01.577Z,81.55
2022-12-15T05:18:21.594Z,81.15
2022-12-15T05:24:44.569Z,81
2022-12-15T05:31:04.677Z,81.12
2022-12-15T05:37:27.622Z,81.29
2022-12-15T05:43:47.577Z,81.24
2022-12-15T05:50:10.584Z,81.8
2022-12-15T05:56:30.584Z,82
2022-12-15T06:02:53.635Z,81.88
2022-12-15T06:09:13.560Z,82.35
2022-12-15T06:15:36.632Z,82.25
2022-12-15T06:21:56.586Z,82.26
2022-12-15T06:28:19.605Z,82.91
2022-12-15T06:34:39.713Z,82.94
2022-12-15T06:41:02.589Z,82.23
2022-12-15T06:47:22.607Z,81.82
2022-12-15T06:53:45.596Z,82.05
2022-12-15T07:00:05.604Z,82.98
2022-12-15T07:06:28.633Z,82.6
2022-12-15T07:12:48.593Z,82.54
2022-12-15T07:19:11.678Z,82.81
2022-12-15T07:25:31.569Z,83.86
2022-12-15T07:31:54.664Z,83.75
2022-12-15T07:38:14.583Z,83.22
2022-12-15T07:44:37.745Z,83.98
2022-12-15T07:51:04.556Z,84.47
2022-12-15T07:57:20.639Z,83.89
2022-12-15T08:03:41.219Z,85.16
2022-12-15T08:10:03.777Z,85.72
2022-12-15T08:16:23.812Z,85.65
2022-12-15T08:22:46.608Z,85.6
2022-12-15T08:29:32.445Z,85.2
2022-12-15T08:35:54.917Z,85.29
2022-12-15T08:41:49.678Z,84.89
2022-12-15T08:48:12.655Z,84.46
2022-12-15T08:54:32.648Z,84.02
2022-12-15T09:00:55.661Z,83.8
2022-12-15T09:24:44.204Z,84
2022-12-15T09:31:03.721Z,84.08
2022-12-15T09:37:26.646Z,84.07
2022-12-15T09:43:47.617Z,83.92
2022-12-15T09:50:09.591Z,83.91
2022-12-15T09:56:29.643Z,83.62
2022-12-15T10:02:52.826Z,82.85
2022-12-15T10:09:12.661Z,82.17
2022-12-15T10:15:35.795Z,82.06
2022-12-15T10:21:55.668Z,81.18
2022-12-15T10:28:18.580Z,80.11
2022-12-15T10:34:38.725Z,80.38
2022-12-15T10:41:01.947Z,79.98
2022-12-15T10:47:21.682Z,80.16
2022-12-15T10:53:44.627Z,79.6
2022-12-15T11:00:04.738Z,79.51
2022-12-15T11:06:27.617Z,79.66
2022-12-15T11:12:50.449Z,79.48
2022-12-15T11:19:10.683Z,79.92
2022-12-15T11:25:30.627Z,79.78
2022-12-15T11:31:53.564Z,79.26
2022-12-15T11:38:13.683Z,77.94
2022-12-15T11:44:36.618Z,78.41
2022-12-15T11:50:56.643Z,77.93
2022-12-15T11:57:19.660Z,76.99
2022-12-15T12:03:39.588Z,76.71
2022-12-15T12:10:02.566Z,76.36
2022-12-15T12:16:22.661Z,77.06
2022-12-15T12:22:45.742Z,76.19
2022-12-15T12:29:05.610Z,75.34
2022-12-15T12:35:30.179Z,75.56
2022-12-15T12:41:48.614Z,75.17
2022-12-15T12:48:11.663Z,74.88
2022-12-15T12:54:31.603Z,74.69
2022-12-15T13:00:56.862Z,74.18
2022-12-15T13:07:14.565Z,74.77
2022-12-15T13:13:37.631Z,75.76
2022-12-15T13:19:57.669Z,75.59
2022-12-15T13:26:20.602Z,74.05
2022-12-15T13:32:40.661Z,72.99
2022-12-15T13:39:03.633Z,74.2
2022-12-15T13:45:23.660Z,74.88
2022-12-15T13:51:49.712Z,76.05
2022-12-15T13:58:06.596Z,74.75
2022-12-15T14:04:29.565Z,75.77
2022-12-15T14:10:50.829Z,76.46
2022-12-15T14:17:12.673Z,76.42
2022-12-15T14:23:32.835Z,76.64
2022-12-15T14:29:59.256Z,76.46
2022-12-15T14:46:21.554Z,77.08
2022-12-15T14:52:41.568Z,77.35
2022-12-15T14:59:04.864Z,76.96
2022-12-15T15:05:24.648Z,77.37
2022-12-15T15:11:47.603Z,77.59
2022-12-15T15:18:07.709Z,77.8
2022-12-15T15:24:30.769Z,78.35
2022-12-15T15:30:50.657Z,78.69
2022-12-15T15:37:17.960Z,78.71
2022-12-15T15:43:33.700Z,78.51
2022-12-15T15:49:56.578Z,79.11
2022-12-15T15:56:16.654Z,78.88
2022-12-15T16:02:39.868Z,79.6
2022-12-15T16:08:59.561Z,79.24
2022-12-15T16:15:22.604Z,79.34
2022-12-15T16:21:42.576Z,79.43
2022-12-15T16:28:05.615Z,80.91
2022-12-15T16:34:25.583Z,80.55
2022-12-15T16:40:48.697Z,80.3
2022-12-15T16:47:08.575Z,80.09
2022-12-15T16:53:31.615Z,81.11
2022-12-15T16:59:51.691Z,81.04
2022-12-15T17:06:14.583Z,80.55
2022-12-15T17:12:34.580Z,80.51
2022-12-15T17:18:57.646Z,82.52
2022-12-15T17:25:20.175Z,81.16
2022-12-15T17:31:40.630Z,82.33
2022-12-15T17:38:00.595Z,83.54
2022-12-15T17:44:38.693Z,82.63
2022-12-15T17:50:43.643Z,82.54
2022-12-15T17:57:06.633Z,82.74
2022-12-15T18:03:26.765Z,81.88
2022-12-15T18:09:49.601Z,81.81
2022-12-15T18:16:09.612Z,81.2
2022-12-15T18:22:32.637Z,81.24
2022-12-15T18:28:52.558Z,80.92
2022-12-15T18:35:15.637Z,80.51
2022-12-15T18:41:35.592Z,80.41
2022-12-15T18:47:58.565Z,79.92
2022-12-15T18:54:18.629Z,79.7
2022-12-15T19:00:41.653Z,80.18
2022-12-15T19:07:01.567Z,81.52
2022-12-15T19:13:24.614Z,80.66
2022-12-15T19:19:44.649Z,79.95
2022-12-15T19:26:07.579Z,79.48
2022-12-15T19:32:27.580Z,79.43
2022-12-15T19:49:57.663Z,80.28
2022-12-15T19:56:17.610Z,80.15
2022-12-15T20:02:40.707Z,80.77
2022-12-15T20:09:00.633Z,80.54
2022-12-15T20:15:23.722Z,80.43
2022-12-15T20:21:43.593Z,80.31
2022-12-15T20:28:06.606Z,80.72
2022-12-15T20:34:26.566Z,80.78
2022-12-15T20:40:49.759Z,80.64
2022-12-15T20:47:09.620Z,80.18
2022-12-15T20:53:33.022Z,79.62
2022-12-15T20:59:52.652Z,79.93
2022-12-15T21:06:15.650Z,79.77
2022-12-15T21:12:35.602Z,79.27
2022-12-15T21:25:18.599Z,78.56
2022-12-15T21:31:41.662Z,78.69
2022-12-15T21:38:01.632Z,78.92
2022-12-15T21:44:24.616Z,78.88
2022-12-15T21:50:44.575Z,78.6
2022-12-15T21:57:07.561Z,79.31
2022-12-15T22:03:27.716Z,79.11
2022-12-15T22:09:50.721Z,78.93
2022-12-15T22:16:10.853Z,78.89
2022-12-15T22:22:33.713Z,78.97
2022-12-15T22:28:53.592Z,78.31
2022-12-15T22:35:16.574Z,77.86
2022-12-15T22:41:36.584Z,78.14
2022-12-15T22:47:59.591Z,78.03
2022-12-15T22:54:19.575Z,78.05
2022-12-15T23:19:54.607Z,79.4
2022-12-15T23:26:14.603Z,78.98
2022-12-15T23:32:37.595Z,78.81
2022-12-15T23:38:57.780Z,78.11
2022-12-15T23:45:20.667Z,77.89
2022-12-15T23:51:40.615Z,78.07
2022-12-15T23:58:03.616Z,77.94
